createdAt,value
2022-11-07T00:00:48.988Z,19.30
2022-11-07T00:03:21.076Z,15.10
2022-11-07T00:05:52.317Z,14.90
2022-11-07T00:08:31.794Z,14.20
2022-11-07T00:11:03.458Z,13.80
2022-11-07T00:13:37.180Z,15.00
2022-11-07T00:16:11.023Z,16.30
2022-11-07T00:18:41.885Z,15.10
2022-11-07T00:21:12.806Z,16.20
2022-11-07T00:23:44.318Z,9.30
2022-11-07T00:26:16.473Z,13.20
2022-11-07T00:28:47.974Z,16.00
2022-11-07T00:33:48.867Z,19.40
2022-11-07T00:38:53.642Z,16.60
2022-11-07T00:41:25.500Z,14.20
2022-11-07T00:43:56.456Z,15.80
2022-11-07T00:46:27.539Z,15.50
2022-11-07T00:48:58.580Z,13.80
2022-11-07T00:51:30.319Z,13.50
2022-11-07T00:54:02.617Z,17.90
2022-11-07T00:56:33.716Z,15.10
2022-11-07T00:59:05.681Z,12.40
2022-11-07T01:01:36.934Z,12.80
2022-11-07T01:04:25.972Z,14.40
2022-11-07T01:06:56.979Z,12.40
2022-11-07T01:09:27.823Z,11.50
2022-11-07T01:11:58.983Z,13.70
2022-11-07T01:14:30.857Z,15.60
2022-11-07T01:17:01.862Z,11.90
2022-11-07T01:19:32.740Z,10.20
2022-11-07T01:22:03.514Z,9.50
2022-11-07T01:24:34.379Z,9.00
2022-11-07T01:27:05.438Z,9.60
2022-11-07T01:29:37.589Z,9.10
2022-11-07T01:32:08.886Z,12.80
2022-11-07T01:34:39.722Z,9.10
2022-11-07T01:37:10.688Z,12.80
2022-11-07T01:42:13.716Z,10.10
2022-11-07T01:44:59.219Z,10.90
2022-11-07T01:47:34.365Z,13.30
2022-11-07T01:50:06.758Z,12.30
2022-11-07T01:52:41.929Z,9.20
2022-11-07T01:55:14.854Z,9.80
2022-11-07T01:57:50.117Z,13.60
2022-11-07T02:00:24.629Z,14.10
2022-11-07T02:03:00.596Z,10.00
2022-11-07T02:05:36.221Z,8.60
2022-11-07T02:08:10.001Z,9.50
2022-11-07T02:10:43.204Z,9.20
2022-11-07T02:13:16.727Z,10.60
2022-11-07T02:15:48.343Z,9.70
2022-11-07T02:20:49.870Z,11.00
2022-11-07T02:23:27.485Z,8.60
2022-11-07T02:25:58.684Z,9.70
2022-11-07T02:31:00.230Z,7.70
2022-11-07T02:33:31.168Z,10.10
2022-11-07T02:36:03.684Z,10.20
2022-11-07T02:38:37.757Z,7.80
2022-11-07T02:41:13.304Z,9.40
2022-11-07T02:43:50.246Z,9.70
2022-11-07T02:46:22.867Z,11.90
2022-11-07T02:48:58.000Z,9.60
2022-11-07T02:51:29.007Z,8.10
2022-11-07T02:54:00.084Z,8.90
2022-11-07T02:56:31.228Z,10.70
2022-11-07T02:59:02.167Z,10.30
2022-11-07T03:01:33.335Z,9.80
2022-11-07T03:04:04.794Z,9.10
2022-11-07T03:06:35.650Z,8.30
2022-11-07T03:09:06.608Z,9.80
2022-11-07T03:11:37.395Z,8.40
2022-11-07T03:14:08.249Z,8.70
2022-11-07T03:16:39.103Z,10.20
2022-11-07T03:19:10.195Z,12.40
2022-11-07T03:21:41.554Z,10.10
2022-11-07T03:24:12.787Z,9.40
2022-11-07T03:26:44.071Z,8.60
2022-11-07T03:29:15.098Z,8.70
2022-11-07T03:31:46.392Z,8.90
2022-11-07T03:36:46.900Z,8.00
2022-11-07T03:39:23.130Z,10.40
2022-11-07T03:41:56.389Z,8.80
2022-11-07T03:44:27.335Z,6.90
2022-11-07T03:46:58.310Z,12.90
2022-11-07T03:49:29.186Z,8.40
2022-11-07T03:52:00.102Z,8.50
2022-11-07T03:54:31.241Z,9.20
2022-11-07T03:57:02.219Z,9.00
2022-11-07T03:59:32.998Z,11.60
2022-11-07T04:02:03.938Z,7.80
2022-11-07T04:04:35.195Z,7.90
2022-11-07T04:07:06.134Z,8.30
2022-11-07T04:09:37.231Z,9.40
2022-11-07T04:12:28.148Z,8.60
2022-11-07T04:15:16.827Z,9.10
2022-11-07T04:17:48.090Z,6.50
2022-11-07T04:22:49.494Z,8.40
2022-11-07T04:25:40.742Z,6.70
2022-11-07T04:28:11.570Z,8.00
2022-11-07T04:30:42.444Z,8.50
2022-11-07T04:33:13.491Z,6.50
2022-11-07T04:38:14.592Z,5.90
2022-11-07T04:43:15.383Z,8.70
2022-11-07T04:45:46.483Z,6.30
2022-11-07T04:48:18.417Z,6.00
2022-11-07T04:50:50.081Z,7.70
2022-11-07T04:53:21.135Z,9.00
2022-11-07T04:55:52.252Z,8.00
2022-11-07T04:58:23.161Z,6.60
2022-11-07T05:00:54.233Z,7.50
2022-11-07T05:03:25.114Z,6.70
2022-11-07T05:05:56.398Z,7.60
2022-11-07T05:08:27.332Z,10.10
2022-11-07T05:10:58.266Z,6.60
2022-11-07T05:13:29.316Z,8.70
2022-11-07T05:16:00.396Z,10.40
2022-11-07T05:18:31.931Z,6.50
2022-11-07T05:21:03.177Z,7.70
2022-11-07T05:23:34.190Z,11.20
2022-11-07T05:26:05.364Z,8.40
2022-11-07T05:28:39.615Z,8.60
2022-11-07T05:31:15.512Z,7.90
2022-11-07T05:33:46.978Z,9.60
2022-11-07T05:36:19.993Z,6.90
2022-11-07T05:38:52.490Z,10.20
2022-11-07T05:41:24.230Z,9.60
2022-11-07T05:43:55.130Z,5.50
2022-11-07T05:46:26.074Z,7.40
2022-11-07T05:49:00.843Z,7.20
2022-11-07T05:51:32.505Z,11.60
2022-11-07T05:54:03.534Z,11.10
2022-11-07T05:56:34.516Z,10.60
2022-11-07T05:59:06.442Z,9.10
2022-11-07T06:01:37.562Z,9.70
2022-11-07T06:06:38.627Z,9.80
2022-11-07T06:09:09.626Z,10.20
2022-11-07T06:11:40.610Z,9.80
2022-11-07T06:14:11.423Z,11.10
2022-11-07T06:16:42.327Z,11.70
2022-11-07T06:19:13.061Z,8.90
2022-11-07T06:21:44.055Z,9.20
2022-11-07T06:24:15.651Z,7.70
2022-11-07T06:26:46.498Z,8.20
2022-11-07T06:29:17.607Z,9.40
2022-11-07T06:31:48.698Z,8.70
2022-11-07T06:34:21.851Z,8.90
2022-11-07T06:37:02.954Z,6.10
2022-11-07T06:39:34.328Z,12.40
2022-11-07T06:42:05.231Z,10.90
2022-11-07T06:44:36.124Z,12.80
2022-11-07T06:47:07.252Z,10.30
2022-11-07T06:49:38.382Z,11.00
2022-11-07T06:52:09.562Z,11.10
2022-11-07T06:54:40.582Z,12.80
2022-11-07T06:57:11.456Z,9.80
2022-11-07T06:59:43.853Z,13.00
2022-11-07T07:02:30.761Z,13.20
2022-11-07T07:05:09.539Z,12.20
2022-11-07T07:07:40.329Z,12.10
2022-11-07T07:10:12.725Z,12.00
2022-11-07T07:12:44.425Z,13.80
2022-11-07T07:15:15.486Z,14.60
2022-11-07T07:17:46.592Z,13.70
2022-11-07T07:20:17.889Z,23.50
2022-11-07T07:23:08.428Z,12.40
2022-11-07T07:25:39.364Z,12.70
2022-11-07T07:28:10.255Z,10.70
2022-11-07T07:30:43.079Z,64.70
2022-11-07T07:33:17.403Z,22.50
2022-11-07T07:35:49.191Z,18.00
2022-11-07T07:38:20.191Z,19.20
2022-11-07T07:40:51.300Z,18.20
2022-11-07T07:43:22.123Z,49.40
2022-11-07T07:45:53.272Z,21.30
2022-11-07T07:48:24.198Z,28.60
2022-11-07T07:50:55.291Z,23.70
2022-11-07T07:53:27.106Z,16.20
2022-11-07T07:56:00.670Z,14.70
2022-11-07T07:58:31.691Z,19.30
2022-11-07T08:01:03.584Z,16.30
2022-11-07T08:03:57.593Z,17.90
2022-11-07T08:06:26.061Z,20.40
2022-11-07T08:08:56.927Z,16.00
2022-11-07T08:11:28.111Z,13.30
2022-11-07T08:14:01.539Z,12.70
2022-11-07T08:16:33.224Z,15.50
2022-11-07T08:19:04.452Z,29.80
2022-11-07T08:24:05.505Z,15.70
2022-11-07T08:26:37.578Z,10.30
2022-11-07T08:29:08.612Z,17.80
2022-11-07T08:34:09.187Z,13.30
2022-11-07T08:36:40.208Z,11.70
2022-11-07T08:39:11.159Z,14.10
2022-11-07T08:41:42.576Z,15.40
2022-11-07T08:44:13.533Z,19.50
2022-11-07T08:49:14.616Z,17.80
2022-11-07T08:51:45.817Z,17.80
2022-11-07T08:56:48.525Z,17.30
2022-11-07T08:59:20.400Z,21.10
2022-11-07T09:02:26.656Z,15.70
2022-11-07T09:04:42.495Z,22.00
2022-11-07T09:09:42.997Z,20.70
2022-11-07T09:14:43.253Z,20.20
2022-11-07T09:17:14.196Z,22.20
2022-11-07T09:19:45.052Z,19.30
2022-11-07T09:22:16.003Z,18.60
2022-11-07T09:24:47.027Z,13.00
2022-11-07T09:27:17.859Z,14.90
2022-11-07T09:32:43.474Z,13.30
2022-11-07T09:35:10.977Z,11.40
2022-11-07T09:37:42.820Z,13.50
2022-11-07T09:40:27.859Z,12.10
2022-11-07T09:43:13.567Z,11.40
2022-11-07T09:45:55.665Z,13.20
2022-11-07T09:48:33.301Z,13.00
2022-11-07T09:51:05.012Z,12.40
2022-11-07T09:53:43.488Z,10.10
2022-11-07T09:56:15.587Z,11.70
2022-11-07T09:58:51.609Z,13.80
2022-11-07T10:01:23.783Z,13.40
2022-11-07T10:04:25.155Z,15.70
2022-11-07T10:06:50.464Z,11.80
2022-11-07T10:09:28.196Z,10.80
2022-11-07T10:12:07.913Z,10.30
2022-11-07T10:14:53.115Z,11.20
2022-11-07T10:17:34.873Z,12.00
2022-11-07T10:20:24.714Z,10.30
2022-11-07T10:23:10.182Z,11.50
2022-11-07T10:25:48.482Z,9.60
2022-11-07T10:28:23.277Z,11.10
2022-11-07T10:30:59.207Z,10.00
2022-11-07T10:33:43.886Z,7.70
2022-11-07T10:36:23.344Z,8.50
2022-11-07T10:38:55.002Z,8.10
2022-11-07T10:41:27.778Z,7.60
2022-11-07T10:44:02.100Z,9.10
2022-11-07T10:46:39.678Z,10.00
2022-11-07T10:49:21.615Z,12.00
2022-11-07T10:51:53.394Z,8.00
2022-11-07T10:54:31.167Z,7.80
2022-11-07T10:57:05.952Z,8.50
2022-11-07T10:59:40.336Z,7.90
2022-11-07T11:02:23.020Z,7.00
2022-11-07T11:04:56.889Z,7.50
2022-11-07T11:07:36.106Z,7.80
2022-11-07T11:10:21.566Z,8.60
2022-11-07T11:12:52.978Z,9.20
2022-11-07T11:15:30.124Z,7.80
2022-11-07T11:18:07.721Z,8.30
2022-11-07T11:20:41.792Z,9.10
2022-11-07T11:23:22.595Z,6.80
2022-11-07T11:25:59.970Z,7.10
2022-11-07T11:28:35.835Z,8.50
2022-11-07T11:31:12.864Z,9.00
2022-11-07T11:33:49.690Z,9.70
2022-11-07T11:36:25.758Z,7.90
2022-11-07T11:38:57.094Z,7.70
2022-11-07T11:41:39.372Z,9.60
2022-11-07T11:44:31.514Z,8.20
2022-11-07T11:47:12.171Z,6.40
2022-11-07T11:49:49.981Z,5.90
2022-11-07T11:52:23.541Z,9.90
2022-11-07T11:54:56.744Z,10.70
2022-11-07T11:57:33.964Z,8.20
2022-11-07T12:03:09.506Z,7.10
2022-11-07T12:05:56.703Z,7.20
2022-11-07T12:08:43.814Z,6.90
2022-11-07T12:11:25.961Z,5.30
2022-11-07T12:14:06.024Z,9.30
2022-11-07T12:16:46.502Z,6.50
2022-11-07T12:19:24.359Z,7.00
2022-11-07T12:22:05.923Z,7.20
2022-11-07T12:24:43.715Z,8.60
2022-11-07T12:27:26.967Z,9.30
2022-11-07T12:30:06.815Z,8.20
2022-11-07T12:32:54.196Z,8.50
2022-11-07T12:35:43.726Z,7.60
2022-11-07T12:38:37.745Z,7.80
2022-11-07T12:41:20.526Z,9.80
2022-11-07T12:44:02.337Z,6.30
2022-11-07T12:46:49.929Z,7.60
2022-11-07T12:49:45.383Z,6.90
2022-11-07T12:52:36.136Z,9.70
2022-11-07T12:55:15.750Z,6.30
2022-11-07T12:57:48.612Z,6.70
2022-11-07T13:00:29.006Z,9.30
2022-11-07T13:03:46.215Z,7.00
2022-11-07T13:06:23.848Z,8.40
2022-11-07T13:09:07.503Z,8.70
2022-11-07T13:11:45.052Z,9.70
2022-11-07T13:14:31.645Z,9.20
2022-11-07T13:17:20.517Z,9.20
2022-11-07T13:20:04.420Z,9.20
2022-11-07T13:22:38.277Z,7.60
2022-11-07T13:25:27.459Z,8.20
2022-11-07T13:28:25.620Z,9.10
2022-11-07T13:31:03.717Z,6.20
2022-11-07T13:33:38.875Z,6.80
2022-11-07T13:36:26.614Z,7.60
2022-11-07T13:39:01.926Z,7.40
2022-11-07T13:41:34.053Z,6.90
2022-11-07T13:44:08.105Z,8.10
2022-11-07T13:46:44.220Z,7.30
2022-11-07T13:49:21.917Z,6.30
2022-11-07T13:51:56.562Z,8.00
2022-11-07T13:54:32.289Z,7.90
2022-11-07T13:57:07.773Z,6.50
2022-11-07T13:59:45.333Z,6.40
2022-11-07T14:02:24.003Z,8.50
2022-11-07T14:07:52.490Z,10.10
2022-11-07T14:10:27.817Z,8.20
2022-11-07T14:13:07.522Z,9.90
2022-11-07T14:15:45.717Z,14.20
2022-11-07T14:18:18.332Z,15.30
2022-11-07T14:20:51.050Z,15.80
2022-11-07T14:23:26.081Z,15.10
2022-11-07T14:26:02.597Z,11.90
2022-11-07T14:28:37.140Z,9.90
2022-11-07T14:31:10.774Z,12.00
2022-11-07T14:33:48.069Z,12.30
2022-11-07T14:36:19.488Z,12.10
2022-11-07T14:38:52.618Z,13.90
2022-11-07T14:41:25.251Z,14.90
2022-11-07T14:43:59.449Z,12.80
2022-11-07T14:46:31.150Z,13.30
2022-11-07T14:49:02.622Z,15.90
2022-11-07T14:51:34.063Z,13.10
2022-11-07T14:54:10.865Z,13.50
2022-11-07T14:56:45.563Z,14.90
2022-11-07T14:59:18.048Z,12.90
2022-11-07T15:01:58.424Z,15.70
2022-11-07T15:04:36.869Z,12.50
2022-11-07T15:07:19.850Z,13.90
2022-11-07T15:09:51.680Z,15.30
2022-11-07T15:12:25.713Z,15.50
2022-11-07T15:15:17.952Z,13.80
2022-11-07T15:17:50.841Z,16.20
2022-11-07T15:20:33.168Z,33.70
2022-11-07T15:23:05.264Z,20.30
2022-11-07T15:25:41.471Z,18.40
2022-11-07T15:28:23.253Z,16.40
2022-11-07T15:30:55.962Z,14.80
2022-11-07T15:33:30.523Z,23.30
2022-11-07T15:36:02.953Z,17.10
2022-11-07T15:38:35.718Z,14.70
2022-11-07T15:41:06.957Z,11.80
2022-11-07T15:43:38.025Z,11.30
2022-11-07T15:46:29.850Z,14.70
2022-11-07T15:49:02.732Z,12.80
2022-11-07T15:51:34.220Z,13.80
2022-11-07T15:54:05.429Z,14.30
2022-11-07T15:59:05.502Z,12.60
2022-11-07T16:06:36.438Z,21.70
2022-11-07T16:09:13.355Z,18.90
2022-11-07T16:11:44.367Z,34.50
2022-11-07T16:14:45.127Z,18.20
2022-11-07T16:17:12.568Z,16.30
2022-11-07T16:19:43.556Z,15.50
2022-11-07T16:22:15.831Z,11.80
2022-11-07T16:24:46.876Z,15.90
2022-11-07T16:27:19.893Z,16.00
2022-11-07T16:29:50.921Z,17.60
2022-11-07T16:32:22.030Z,14.50
2022-11-07T16:34:53.075Z,13.00
2022-11-07T16:37:23.812Z,12.70
2022-11-07T16:39:54.907Z,22.10
2022-11-07T16:42:25.845Z,11.80
2022-11-07T16:47:26.305Z,11.60
2022-11-07T16:49:57.173Z,15.70
2022-11-07T16:52:28.979Z,13.10
2022-11-07T16:55:00.117Z,13.70
2022-11-07T17:00:00.446Z,14.00
2022-11-07T17:02:31.323Z,17.90
2022-11-07T17:07:32.221Z,20.40
2022-11-07T17:10:03.348Z,15.20
2022-11-07T17:12:34.384Z,15.40
2022-11-07T17:17:35.329Z,17.60
2022-11-07T17:20:07.938Z,38.90
2022-11-07T17:22:39.064Z,41.50
2022-11-07T17:25:11.053Z,35.40
2022-11-07T17:27:43.283Z,29.70
2022-11-07T17:30:19.364Z,34.10
2022-11-07T17:32:50.437Z,26.10
2022-11-07T17:35:37.216Z,20.40
2022-11-07T17:38:11.118Z,27.90
2022-11-07T17:40:42.193Z,20.00
2022-11-07T17:45:43.169Z,20.90
2022-11-07T17:48:14.621Z,31.00
2022-11-07T17:50:45.927Z,68.90
2022-11-07T17:55:46.355Z,29.50
2022-11-07T18:00:47.494Z,23.20
2022-11-07T18:03:18.415Z,25.50
2022-11-07T18:05:50.657Z,26.50
2022-11-07T18:08:45.862Z,23.90
2022-11-07T18:11:12.903Z,19.50
2022-11-07T18:13:44.098Z,21.50
2022-11-07T18:16:18.113Z,17.40
2022-11-07T18:18:49.512Z,22.50
2022-11-07T18:21:20.675Z,23.30
2022-11-07T18:23:51.684Z,22.00
2022-11-07T18:26:25.330Z,18.90
2022-11-07T18:28:56.587Z,23.40
2022-11-07T18:31:28.049Z,18.70
2022-11-07T18:34:01.104Z,20.50
2022-11-07T18:36:32.984Z,18.40
2022-11-07T18:39:07.070Z,19.20
2022-11-07T18:41:38.018Z,19.80
2022-11-07T18:44:09.521Z,22.80
2022-11-07T18:46:41.299Z,22.40
2022-11-07T18:49:14.829Z,18.40
2022-11-07T18:51:45.807Z,19.70
2022-11-07T18:54:16.850Z,17.70
2022-11-07T18:56:48.111Z,18.30
2022-11-07T18:59:18.879Z,17.10
2022-11-07T19:01:52.402Z,17.60
2022-11-07T19:04:23.750Z,20.20
2022-11-07T19:09:32.873Z,24.50
2022-11-07T19:12:04.718Z,22.40
2022-11-07T19:14:36.654Z,21.90
2022-11-07T19:17:07.609Z,24.00
2022-11-07T19:19:38.549Z,24.80
2022-11-07T19:22:12.628Z,19.10
2022-11-07T19:24:43.905Z,29.60
2022-11-07T19:27:15.015Z,28.70
2022-11-07T19:29:47.003Z,222.30
2022-11-07T19:32:18.857Z,37.40
2022-11-07T19:34:51.111Z,194.10
2022-11-07T19:37:22.173Z,133.20
2022-11-07T19:42:26.817Z,93.80
2022-11-07T19:44:58.248Z,119.10
2022-11-07T19:47:30.426Z,171.10
2022-11-07T19:50:01.422Z,150.10
2022-11-07T19:52:33.487Z,88.10
2022-11-07T19:55:05.162Z,77.70
2022-11-07T19:57:36.158Z,91.40
2022-11-07T20:00:10.088Z,116.50
2022-11-07T20:02:44.775Z,171.30
2022-11-07T20:05:24.258Z,193.90
2022-11-07T20:08:00.723Z,122.80
2022-11-07T20:10:35.428Z,109.90
2022-11-07T20:13:06.547Z,117.80
2022-11-07T20:15:39.779Z,108.00
2022-11-07T20:18:11.152Z,83.70
2022-11-07T20:20:42.022Z,82.20
2022-11-07T20:23:13.110Z,46.00
2022-11-07T20:25:44.646Z,52.10
2022-11-07T20:28:15.676Z,47.00
2022-11-07T20:30:46.924Z,30.20
2022-11-07T20:33:18.758Z,41.00
2022-11-07T20:36:00.709Z,63.30
2022-11-07T20:38:32.369Z,74.00
2022-11-07T20:41:04.685Z,29.00
2022-11-07T20:43:36.203Z,29.90
2022-11-07T20:46:09.149Z,36.20
2022-11-07T20:48:41.019Z,31.20
2022-11-07T20:51:14.155Z,43.50
2022-11-07T20:53:50.007Z,43.50
2022-11-07T20:56:23.118Z,46.40
2022-11-07T20:58:54.594Z,49.10
2022-11-07T21:01:28.206Z,42.60
2022-11-07T21:03:59.785Z,41.50
2022-11-07T21:06:30.930Z,50.50
2022-11-07T21:09:02.146Z,34.70
2022-11-07T21:11:33.669Z,35.50
2022-11-07T21:14:04.853Z,30.70
2022-11-07T21:16:36.425Z,31.30
2022-11-07T21:19:08.803Z,36.30
2022-11-07T21:21:39.564Z,36.00
2022-11-07T21:26:41.403Z,39.20
2022-11-07T21:29:13.153Z,36.90
2022-11-07T21:31:45.050Z,35.40
2022-11-07T21:34:16.275Z,25.70
2022-11-07T21:36:47.822Z,30.70
2022-11-07T21:39:18.662Z,38.10
2022-11-07T21:41:50.343Z,34.00
2022-11-07T21:44:21.666Z,42.80
2022-11-07T21:46:52.786Z,43.30
2022-11-07T21:49:23.756Z,35.20
2022-11-07T21:54:25.917Z,33.60
2022-11-07T21:56:56.956Z,33.50
2022-11-07T21:59:27.843Z,32.50
2022-11-07T22:01:58.991Z,31.40
2022-11-07T22:04:30.401Z,30.80
2022-11-07T22:09:31.294Z,28.30
2022-11-07T22:12:02.376Z,31.40
2022-11-07T22:14:33.371Z,31.90
2022-11-07T22:17:04.350Z,31.20
2022-11-07T22:19:36.080Z,32.60
2022-11-07T22:22:07.429Z,29.70
2022-11-07T22:24:38.271Z,30.30
2022-11-07T22:29:39.061Z,26.80
2022-11-07T22:32:10.082Z,25.00
2022-11-07T22:37:10.853Z,42.80
2022-11-07T22:39:41.736Z,29.30
2022-11-07T22:42:12.717Z,27.20
2022-11-07T22:44:43.902Z,24.70
2022-11-07T22:47:14.785Z,30.30
2022-11-07T22:49:46.007Z,26.30
2022-11-07T22:52:16.911Z,32.70
2022-11-07T22:54:48.458Z,29.30
2022-11-07T23:02:19.145Z,69.00
2022-11-07T23:04:50.164Z,98.90
2022-11-07T23:09:51.125Z,109.60
2022-11-07T23:14:51.643Z,59.30
2022-11-07T23:17:22.576Z,57.10
2022-11-07T23:19:55.621Z,52.20
2022-11-07T23:22:31.204Z,38.10
2022-11-07T23:25:03.397Z,32.80
2022-11-07T23:30:03.982Z,34.70
2022-11-07T23:32:35.333Z,29.50
2022-11-07T23:35:07.317Z,29.10
2022-11-07T23:37:38.486Z,37.40
2022-11-07T23:42:41.094Z,46.30
2022-11-07T23:45:30.562Z,54.50
2022-11-07T23:48:35.464Z,42.00
2022-11-07T23:51:11.727Z,34.40
2022-11-07T23:54:00.231Z,49.60
2022-11-07T23:56:31.910Z,191.10
2022-11-07T23:59:20.738Z,121.40
